Time;durP1;ratioP1;P1;durP2;ratioP2;P2;SDS_P1;SDS_P2;PMS_P1;PMS_P2;Temp;Humidity;BMP_temperature;BMP_pressure;BME280_temperature;BME280_humidity;BME280_pressure;Samples;Min_cycle;Max_cycle;Signal;HPM_P1;HPM_P2
2022/12/14 00:00:40;;;;;;;39.35;23.52;;;-2.30;99.90;;;;;;5055405;28;20036;-69
2022/12/14 00:03:06;;;;;;;37.63;23.15;;;-2.30;99.90;;;;;;5072064;28;20174;-69
2022/12/14 00:05:31;;;;;;;39.38;24.23;;;-2.30;99.90;;;;;;5071882;28;20119;-69
2022/12/14 00:07:57;;;;;;;35.88;22.80;;;-2.30;99.90;;;;;;5071995;28;20102;-69
2022/12/14 00:10:22;;;;;;;40.95;24.10;;;-2.20;99.90;;;;;;5071977;28;20041;-69
2022/12/14 00:12:48;;;;;;;39.17;23.08;;;-2.30;99.90;;;;;;5071951;28;20037;-69
2022/12/14 00:15:13;;;;;;;38.78;23.23;;;-2.30;99.90;;;;;;5072165;28;20040;-69
2022/12/14 00:17:39;;;;;;;40.10;23.20;;;-2.20;99.90;;;;;;5071881;28;20528;-69
2022/12/14 00:20:05;;;;;;;38.95;23.98;;;-2.30;99.90;;;;;;5071866;28;20048;-69
2022/12/14 00:22:30;;;;;;;38.55;23.88;;;-2.20;99.90;;;;;;5072103;28;20143;-69
2022/12/14 00:24:56;;;;;;;40.50;24.42;;;-2.20;99.90;;;;;;5071923;28;20528;-69
2022/12/14 00:27:22;;;;;;;40.40;23.77;;;-2.20;99.90;;;;;;5071795;28;20400;-69
2022/12/14 00:29:47;;;;;;;41.40;24.13;;;-2.20;99.90;;;;;;5071773;28;20074;-69
2022/12/14 00:32:13;;;;;;;42.75;23.80;;;-2.30;99.90;;;;;;5071743;28;20037;-69
2022/12/14 00:34:38;;;;;;;40.10;22.98;;;-2.20;99.90;;;;;;5071663;28;20043;-69
2022/12/14 00:37:04;;;;;;;38.42;23.05;;;-2.30;99.90;;;;;;5071718;28;20101;-69
2022/12/14 00:39:30;;;;;;;40.05;23.10;;;-2.30;99.90;;;;;;5071693;28;20063;-69
2022/12/14 00:41:55;;;;;;;37.97;23.02;;;-2.20;99.90;;;;;;5071674;28;20080;-69
2022/12/14 00:44:21;;;;;;;36.10;22.33;;;-2.30;99.90;;;;;;5071551;28;20040;-69
2022/12/14 00:46:46;;;;;;;35.55;21.33;;;-2.30;99.90;;;;;;5071409;28;20056;-69
2022/12/14 00:49:12;;;;;;;35.58;21.17;;;-2.20;99.90;;;;;;5071850;28;20048;-69
2022/12/14 00:51:37;;;;;;;37.38;22.58;;;-2.30;99.90;;;;;;5071559;28;20043;-69
2022/12/14 00:54:03;;;;;;;39.97;22.40;;;-2.30;99.90;;;;;;5071843;28;20032;-69
2022/12/14 00:56:29;;;;;;;33.80;20.10;;;-2.30;99.90;;;;;;5071509;28;20497;-69
2022/12/14 00:58:56;;;;;;;34.95;22.60;;;-2.30;99.90;;;;;;5071809;28;20056;-69
2022/12/14 01:01:21;;;;;;;36.50;22.42;;;-2.30;99.90;;;;;;5071500;28;20123;-69
2022/12/14 01:03:48;;;;;;;42.85;23.63;;;-2.30;99.90;;;;;;5071700;28;20094;-69
2022/12/14 01:06:21;;;;;;;39.55;23.00;;;-2.30;99.90;;;;;;5074893;28;20047;-69
2022/12/14 01:08:47;;;;;;;37.95;22.73;;;-2.30;99.90;;;;;;5075347;28;20102;-69
2022/12/14 01:11:14;;;;;;;41.45;23.23;;;-2.40;99.90;;;;;;5075481;28;20041;-69
2022/12/14 01:13:40;;;;;;;38.03;23.10;;;-2.40;99.90;;;;;;5075207;28;20037;-69
2022/12/14 01:16:12;;;;;;;38.25;22.50;;;-2.40;99.90;;;;;;5076597;28;20040;-69
2022/12/14 01:18:39;;;;;;;43.60;24.38;;;-2.40;99.90;;;;;;5075152;28;20048;-69
2022/12/14 01:21:15;;;;;;;36.25;21.90;;;-2.50;99.90;;;;;;5075321;28;20052;-69
2022/12/14 01:23:42;;;;;;;36.70;21.85;;;-2.50;99.90;;;;;;5075268;28;20041;-69
2022/12/14 01:26:08;;;;;;;38.72;23.13;;;-2.50;99.90;;;;;;5058176;28;20122;-69
2022/12/14 01:28:34;;;;;;;37.97;22.92;;;-2.50;99.90;;;;;;5074878;28;20100;-69
2022/12/14 01:31:15;;;;;;;36.13;23.27;;;-2.60;99.90;;;;;;5074918;28;20119;-69
2022/12/14 01:33:41;;;;;;;36.78;23.33;;;-2.60;99.90;;;;;;5075066;28;20500;-69
2022/12/14 01:36:13;;;;;;;42.20;22.13;;;-2.70;99.90;;;;;;5075020;28;20052;-69
2022/12/14 01:38:39;;;;;;;36.78;21.95;;;-2.60;99.90;;;;;;5074760;28;20600;-69
2022/12/14 01:41:05;;;;;;;42.05;23.77;;;-2.70;99.90;;;;;;5075009;28;20119;-69
2022/12/14 01:44:06;;;;;;;37.08;21.83;;;-2.70;99.90;;;;;;5074625;28;20512;-69
2022/12/14 01:46:47;;;;;;;41.85;23.13;;;-2.60;99.90;;;;;;5017075;28;20061;-69
2022/12/14 01:49:21;;;;;;;41.10;23.30;;;-2.70;99.90;;;;;;5017264;28;20057;-69
2022/12/14 01:52:08;;;;;;;38.20;21.75;;;-2.70;99.90;;;;;;5017213;28;20046;-69
2022/12/14 01:54:36;;;;;;;37.28;21.42;;;-2.70;99.90;;;;;;5017374;28;20416;-69
2022/12/14 01:57:03;;;;;;;39.00;22.85;;;-2.80;99.90;;;;;;5017262;28;20053;-69
2022/12/14 01:59:34;;;;;;;34.78;21.15;;;-2.80;99.90;;;;;;5017109;28;20047;-69
2022/12/14 02:02:02;;;;;;;39.00;22.20;;;-2.90;99.90;;;;;;5017092;28;20084;-69
2022/12/14 02:04:29;;;;;;;35.88;22.02;;;-3.00;99.90;;;;;;5016855;28;20564;-69
2022/12/14 02:06:55;;;;;;;35.42;21.40;;;-3.00;99.90;;;;;;5016864;28;20199;-69
2022/12/14 02:09:26;;;;;;;39.72;22.58;;;-3.00;99.90;;;;;;5016974;28;20110;-69
2022/12/14 02:11:59;;;;;;;38.40;21.27;;;-3.00;99.90;;;;;;5016811;28;20193;-69
2022/12/14 02:14:25;;;;;;;36.63;21.98;;;-3.00;99.90;;;;;;5016729;28;20034;-69
2022/12/14 02:16:53;;;;;;;39.60;22.90;;;-3.00;99.90;;;;;;5015429;28;20045;-69
2022/12/14 02:19:19;;;;;;;35.28;21.17;;;-3.00;99.90;;;;;;5016759;28;20120;-69
2022/12/14 02:21:55;;;;;;;37.50;22.20;;;-3.00;99.90;;;;;;5036363;28;20174;-69
2022/12/14 02:24:20;;;;;;;36.35;20.80;;;-3.10;99.90;;;;;;5074133;28;20048;-69
2022/12/14 02:27:01;;;;;;;37.25;21.50;;;-3.20;99.90;;;;;;5073767;28;20049;-69
2022/12/14 02:29:37;;;;;;;36.08;20.20;;;-3.20;99.90;;;;;;5073869;28;20051;-69
2022/12/14 02:32:19;;;;;;;39.42;22.17;;;-3.20;99.90;;;;;;5073771;28;20465;-69
2022/12/14 02:35:15;;;;;;;34.60;20.33;;;-3.30;99.90;;;;;;5073675;28;20048;-69
2022/12/14 02:38:08;;;;;;;33.58;20.15;;;-3.30;99.90;;;;;;5073698;28;20086;-69
2022/12/14 02:40:44;;;;;;;36.67;21.00;;;-3.30;99.90;;;;;;5073626;28;20445;-69
2022/12/14 02:43:17;;;;;;;37.63;20.88;;;-3.40;99.90;;;;;;5073573;28;20067;-69
2022/12/14 02:45:52;;;;;;;35.60;20.52;;;-3.40;99.90;;;;;;5073560;28;20040;-69
2022/12/14 02:48:23;;;;;;;36.63;21.35;;;-3.40;99.90;;;;;;5073365;28;20040;-69
2022/12/14 02:51:21;;;;;;;34.92;20.42;;;-3.50;99.90;;;;;;5056979;28;20048;-69
2022/12/14 02:54:00;;;;;;;37.22;20.38;;;-3.50;99.90;;;;;;5053087;28;20050;-69
2022/12/14 02:56:41;;;;;;;33.20;20.35;;;-3.40;99.90;;;;;;5073297;28;20136;-69
2022/12/14 02:59:08;;;;;;;33.30;19.67;;;-3.40;99.90;;;;;;5073472;28;20123;-68
2022/12/14 03:01:35;;;;;;;36.05;20.13;;;-3.40;99.90;;;;;;5073415;28;20052;-68
2022/12/14 03:04:02;;;;;;;36.17;19.45;;;-3.40;99.90;;;;;;5073092;28;20059;-68
2022/12/14 03:06:28;;;;;;;31.98;19.00;;;-3.40;99.90;;;;;;5073008;28;20059;-68
2022/12/14 03:09:05;;;;;;;32.90;19.27;;;-3.40;99.90;;;;;;5073309;28;20107;-68
2022/12/14 03:11:47;;;;;;;33.08;19.05;;;-3.40;99.90;;;;;;5074793;28;20044;-68
2022/12/14 03:14:24;;;;;;;28.13;17.85;;;-3.40;99.90;;;;;;5056238;28;20068;-69
2022/12/14 03:16:51;;;;;;;32.88;18.40;;;-3.40;99.90;;;;;;5073142;28;20037;-69
2022/12/14 03:19:33;;;;;;;33.42;19.02;;;-3.30;99.90;;;;;;5073060;28;20052;-69
2022/12/14 03:22:04;;;;;;;32.70;18.90;;;-3.40;99.90;;;;;;5073070;28;20396;-69
2022/12/14 03:24:48;;;;;;;30.83;18.02;;;-3.40;99.90;;;;;;5072908;28;20075;-69
2022/12/14 03:27:16;;;;;;;;;;;-3.40;99.90;;;;;;5072729;28;20051;-69
2022/12/14 03:29:49;;;;;;;31.33;17.98;;;-3.40;99.90;;;;;;5072888;28;20381;-69
2022/12/14 03:32:19;;;;;;;31.83;18.13;;;-3.50;99.90;;;;;;5072615;28;20049;-69
2022/12/14 03:34:52;;;;;;;30.00;17.52;;;-3.50;99.90;;;;;;5072517;28;20033;-69
2022/12/14 03:37:30;;;;;;;31.08;18.30;;;-3.50;99.90;;;;;;5072803;28;20098;-69
2022/12/14 03:39:56;;;;;;;32.88;17.38;;;-3.60;99.90;;;;;;5072410;28;20127;-69
2022/12/14 03:42:27;;;;;;;35.75;18.08;;;-3.50;99.90;;;;;;5072386;28;20079;-69
2022/12/14 03:45:22;;;;;;;31.45;17.33;;;-3.60;99.90;;;;;;5072210;28;20052;-69
2022/12/14 03:48:11;;;;;;;36.75;19.08;;;-3.50;99.90;;;;;;5072212;28;20037;-69
2022/12/14 03:51:09;;;;;;;32.33;16.52;;;-3.50;99.90;;;;;;5072236;28;20447;-69
2022/12/14 03:54:06;;;;;;;29.05;16.92;;;-3.50;99.90;;;;;;5072370;28;20099;-69
2022/12/14 03:56:32;;;;;;;34.05;18.23;;;-3.50;99.90;;;;;;5072220;28;20049;-69
2022/12/14 03:59:31;;;;;;;29.02;17.13;;;-3.60;99.90;;;;;;5072392;28;20051;-69
2022/12/14 04:02:03;;;;;;;30.08;17.05;;;-3.60;99.90;;;;;;5072393;28;20121;-69
2022/12/14 04:04:44;;;;;;;31.20;17.40;;;-3.70;99.90;;;;;;5071944;28;20123;-69
2022/12/14 04:07:25;;;;;;;29.67;17.05;;;-3.80;99.90;;;;;;5072070;28;20036;-69
2022/12/14 04:09:53;;;;;;;32.47;17.65;;;-3.90;99.90;;;;;;5072013;28;20082;-69
2022/12/14 04:21:16;;;;;;;30.80;17.13;;;-4.00;99.90;;;;;;5071939;28;20095;-69
2022/12/14 04:26:39;;;;;;;29.35;16.90;;;-4.10;99.90;;;;;;5071754;28;20494;-69
2022/12/14 04:32:08;;;;;;;32.28;16.83;;;-4.10;99.90;;;;;;5071733;28;20049;-69
2022/12/14 04:34:35;;;;;;;32.28;18.33;;;-4.20;99.90;;;;;;5071708;28;20082;-69
2022/12/14 04:37:05;;;;;;;28.33;16.65;;;-4.20;99.90;;;;;;5071721;28;20054;-69
2022/12/14 04:39:50;;;;;;;31.70;17.75;;;-4.20;99.90;;;;;;5072634;28;20481;-69
2022/12/14 04:42:17;;;;;;;28.95;16.52;;;-4.20;99.90;;;;;;5076143;28;20056;-69
2022/12/14 04:44:50;;;;;;;31.42;17.33;;;-4.30;99.90;;;;;;5075658;28;20520;-69
2022/12/14 04:47:18;;;;;;;27.25;16.08;;;-4.30;99.90;;;;;;5075668;28;20044;-69
2022/12/14 04:49:49;;;;;;;30.73;17.40;;;-4.40;99.90;;;;;;5076001;28;20102;-69
2022/12/14 04:52:22;;;;;;;30.85;17.88;;;-4.40;99.90;;;;;;5075994;28;20071;-69
2022/12/14 04:54:54;;;;;;;27.38;16.50;;;-4.40;99.90;;;;;;5075627;28;20036;-69
2022/12/14 04:57:41;;;;;;;29.33;16.70;;;-4.50;99.90;;;;;;5075631;28;20550;-69
2022/12/14 05:00:08;;;;;;;26.77;15.82;;;-4.40;99.90;;;;;;5075767;28;20113;-69
2022/12/14 05:03:10;;;;;;;28.45;17.10;;;-4.50;99.90;;;;;;5075714;28;20147;-69
2022/12/14 05:06:09;;;;;;;31.27;17.48;;;-4.50;99.90;;;;;;5075484;28;20087;-69
2022/12/14 05:09:13;;;;;;;28.63;17.17;;;-4.50;99.90;;;;;;5075402;28;20040;-69
2022/12/14 05:11:41;;;;;;;31.48;17.40;;;-4.50;99.90;;;;;;5075315;28;20032;-69
2022/12/14 05:14:12;;;;;;;34.13;17.17;;;-4.60;99.90;;;;;;5075129;28;20055;-69
2022/12/14 05:16:38;;;;;;;31.48;17.35;;;-4.60;99.90;;;;;;5075171;28;20047;-69
2022/12/14 05:19:09;;;;;;;31.50;18.10;;;-4.60;99.90;;;;;;5075134;28;20033;-69
2022/12/14 05:21:48;;;;;;;32.15;18.30;;;-4.60;99.90;;;;;;5075065;28;20040;-69
2022/12/14 05:24:15;;;;;;;31.58;17.73;;;-4.60;99.90;;;;;;5074997;28;20040;-69
2022/12/14 05:26:41;;;;;;;30.05;17.25;;;-4.60;99.90;;;;;;5074876;28;20036;-69
2022/12/14 05:29:07;;;;;;;32.08;18.38;;;-4.70;99.90;;;;;;5074927;28;20086;-69
2022/12/14 05:31:32;;;;;;;31.55;17.15;;;-4.60;99.90;;;;;;5074923;28;20036;-69
2022/12/14 05:33:58;;;;;;;33.72;18.60;;;-4.70;99.90;;;;;;5074818;28;20211;-69
2022/12/14 05:36:24;;;;;;;30.75;17.92;;;-4.70;99.90;;;;;;5075974;28;20075;-69
2022/12/14 05:38:49;;;;;;;30.83;17.50;;;-4.70;99.90;;;;;;5074770;28;20497;-69
2022/12/14 05:41:15;;;;;;;31.92;17.83;;;-4.80;99.90;;;;;;5074958;28;20040;-69
2022/12/14 05:43:40;;;;;;;37.97;19.40;;;-4.80;99.90;;;;;;5074662;28;20558;-69
2022/12/14 05:46:08;;;;;;;35.22;17.70;;;-4.80;99.90;;;;;;5074491;28;20048;-69
2022/12/14 05:48:34;;;;;;;35.80;19.42;;;-4.80;99.90;;;;;;5074753;28;20064;-69
2022/12/14 05:51:10;;;;;;;33.20;18.20;;;-4.80;99.90;;;;;;5074162;28;20481;-69
2022/12/14 05:53:37;;;;;;;31.80;18.13;;;-4.80;99.90;;;;;;5074545;28;20044;-69
2022/12/14 05:56:04;;;;;;;35.97;19.38;;;-4.80;99.90;;;;;;5074376;28;20124;-69
2022/12/14 05:58:31;;;;;;;31.70;17.70;;;-4.80;99.90;;;;;;5074390;28;20048;-69
2022/12/14 06:01:05;;;;;;;31.90;19.40;;;-4.80;99.90;;;;;;5074594;28;20135;-69
2022/12/14 06:03:30;;;;;;;34.67;18.65;;;-4.80;99.90;;;;;;5074588;28;20130;-69
2022/12/14 06:06:04;;;;;;;31.67;18.63;;;-4.80;99.90;;;;;;5074070;28;20124;-68
2022/12/14 06:08:35;;;;;;;37.17;18.85;;;-4.90;99.90;;;;;;5074192;28;20516;-69
2022/12/14 06:11:03;;;;;;;32.33;18.42;;;-4.90;99.90;;;;;;5074180;28;20041;-68
2022/12/14 06:13:28;;;;;;;33.72;17.48;;;-4.90;99.90;;;;;;5074091;28;20089;-68
2022/12/14 06:15:54;;;;;;;32.28;18.80;;;-5.00;99.90;;;;;;5074458;28;20048;-69
2022/12/14 06:18:20;;;;;;;33.95;17.50;;;-5.00;99.90;;;;;;5074285;28;20052;-69
2022/12/14 06:20:45;;;;;;;31.80;18.65;;;-5.00;99.90;;;;;;5074280;28;20072;-68
2022/12/14 06:23:11;;;;;;;32.83;18.00;;;-5.00;99.90;;;;;;5074192;28;20517;-69
2022/12/14 06:25:36;;;;;;;34.53;18.55;;;-5.00;99.90;;;;;;5073721;28;20562;-69
2022/12/14 06:28:02;;;;;;;35.67;18.50;;;-5.00;99.90;;;;;;5073825;28;20106;-68
2022/12/14 06:30:28;;;;;;;32.10;18.35;;;-5.00;99.90;;;;;;5073780;28;20063;-68
2022/12/14 06:32:53;;;;;;;34.22;18.02;;;-5.10;99.90;;;;;;5073770;28;20042;-68
2022/12/14 06:35:19;;;;;;;34.80;18.70;;;-5.00;99.90;;;;;;5073662;28;20040;-69
2022/12/14 06:37:44;;;;;;;31.90;17.10;;;-5.00;99.90;;;;;;5073664;28;20033;-69
2022/12/14 06:40:10;;;;;;;29.67;17.05;;;-5.00;99.90;;;;;;5073835;28;20052;-69
2022/12/14 06:42:36;;;;;;;34.33;19.42;;;-5.00;99.90;;;;;;5073539;28;20040;-69
2022/12/14 06:45:01;;;;;;;34.85;18.02;;;-5.00;99.90;;;;;;5073608;28;20123;-69
2022/12/14 06:47:27;;;;;;;32.67;18.00;;;-5.00;99.90;;;;;;5073289;28;20520;-69
2022/12/14 06:49:52;;;;;;;31.73;17.42;;;-5.00;99.90;;;;;;5073406;28;20068;-68
2022/12/14 06:52:18;;;;;;;33.08;18.05;;;-5.00;99.90;;;;;;5073354;28;20037;-68
2022/12/14 06:54:44;;;;;;;35.13;18.27;;;-5.10;99.90;;;;;;5074527;28;20082;-69
2022/12/14 06:57:09;;;;;;;31.42;17.42;;;-5.10;99.90;;;;;;5073276;28;20507;-68
2022/12/14 06:59:35;;;;;;;33.78;18.05;;;-5.10;99.90;;;;;;5073171;28;20052;-68
2022/12/14 07:02:00;;;;;;;34.15;18.38;;;-5.10;99.90;;;;;;5072669;28;20033;-68
2022/12/14 07:04:26;;;;;;;34.08;18.63;;;-5.20;99.90;;;;;;5073302;28;20044;-68
2022/12/14 07:06:52;;;;;;;31.55;18.58;;;-5.30;99.90;;;;;;5072990;28;20055;-68
2022/12/14 07:09:18;;;;;;;33.15;18.00;;;-5.30;99.90;;;;;;5072992;28;20401;-68
2022/12/14 07:11:43;;;;;;;36.05;19.15;;;-5.40;99.90;;;;;;5072994;28;20482;-68
2022/12/14 07:14:18;;;;;;;34.72;18.65;;;-5.30;99.90;;;;;;5073105;28;20439;-69
2022/12/14 07:16:44;;;;;;;32.78;17.75;;;-5.30;99.90;;;;;;5072910;28;20123;-68
2022/12/14 07:19:09;;;;;;;32.35;18.20;;;-5.30;99.90;;;;;;5072817;28;20119;-68
2022/12/14 07:21:35;;;;;;;31.30;18.10;;;-5.30;99.90;;;;;;5072848;28;20040;-68
2022/12/14 07:24:01;;;;;;;38.55;18.85;;;-5.30;99.90;;;;;;5072713;28;20044;-69
2022/12/14 07:26:27;;;;;;;33.55;18.85;;;-5.30;99.90;;;;;;5072502;28;20067;-69
2022/12/14 07:28:53;;;;;;;35.78;18.52;;;-5.30;99.90;;;;;;5072705;28;20036;-69
2022/12/14 07:31:24;;;;;;;38.10;18.33;;;-5.40;99.90;;;;;;5072611;28;20039;-69
2022/12/14 07:33:55;;;;;;;31.95;18.02;;;-5.30;99.90;;;;;;5072546;28;20040;-68
2022/12/14 07:36:22;;;;;;;32.00;17.05;;;-5.30;99.90;;;;;;5072408;28;20086;-69
2022/12/14 07:38:50;;;;;;;35.13;18.20;;;-5.30;99.90;;;;;;5072448;28;20072;-68
2022/12/14 07:41:22;;;;;;;32.70;17.40;;;-5.40;99.90;;;;;;5072438;28;20041;-68
2022/12/14 07:43:47;;;;;;;36.50;19.13;;;-5.40;99.90;;;;;;5072618;28;20051;-69
2022/12/14 07:46:15;;;;;;;34.30;18.98;;;-5.40;99.90;;;;;;5072223;28;20460;-69
2022/12/14 07:48:50;;;;;;;33.10;19.17;;;-5.50;99.90;;;;;;5072549;28;20089;-68
2022/12/14 07:51:18;;;;;;;35.28;19.85;;;-5.40;99.90;;;;;;5072516;28;20036;-68
2022/12/14 07:53:44;;;;;;;30.30;18.13;;;-5.40;99.90;;;;;;5072454;28;20040;-69
2022/12/14 07:56:17;;;;;;;34.72;19.58;;;-5.40;99.90;;;;;;5072856;28;20093;-68
2022/12/14 07:58:43;;;;;;;33.97;18.48;;;-5.40;99.90;;;;;;5072402;28;20044;-68
2022/12/14 08:01:14;;;;;;;39.25;19.10;;;-5.40;99.90;;;;;;5072400;28;20052;-68
2022/12/14 08:03:41;;;;;;;35.90;18.80;;;-5.40;99.90;;;;;;5072113;28;20051;-68
2022/12/14 08:06:09;;;;;;;40.45;18.80;;;-5.40;99.90;;;;;;5072052;28;20048;-68
2022/12/14 08:08:35;;;;;;;32.00;17.35;;;-5.40;99.90;;;;;;5072021;28;20072;-68
2022/12/14 08:11:02;;;;;;;36.80;18.42;;;-5.30;99.90;;;;;;5072022;28;20110;-68
2022/12/14 08:13:27;;;;;;;38.35;19.25;;;-5.30;99.90;;;;;;5055268;28;20040;-68
2022/12/14 08:15:53;;;;;;;39.90;20.33;;;-5.30;99.90;;;;;;5072027;28;20047;-69
2022/12/14 08:18:18;;;;;;;36.97;20.35;;;-5.30;99.90;;;;;;5072087;28;20448;-68
2022/12/14 08:20:50;;;;;;;33.15;18.52;;;-5.30;99.90;;;;;;5072038;28;20040;-68
2022/12/14 08:23:17;;;;;;;35.58;19.45;;;-5.30;99.90;;;;;;5072502;28;20102;-68
2022/12/14 08:25:43;;;;;;;36.83;19.85;;;-5.30;99.90;;;;;;5071877;28;20045;-68
2022/12/14 08:28:08;;;;;;;35.83;19.50;;;-5.30;99.90;;;;;;5071830;28;20116;-68
2022/12/14 08:30:39;;;;;;;32.88;19.77;;;-5.30;99.90;;;;;;5071771;28;20082;-68
2022/12/14 08:33:05;;;;;;;38.72;19.95;;;-5.30;99.90;;;;;;5071776;28;20072;-68
2022/12/14 08:35:34;;;;;;;42.97;21.92;;;-5.30;99.90;;;;;;5071691;28;20086;-69
2022/12/14 08:38:00;;;;;;;36.85;19.45;;;-5.20;99.90;;;;;;5071746;28;20052;-69
2022/12/14 08:40:26;;;;;;;38.78;20.17;;;-5.20;99.90;;;;;;5071999;28;20052;-69
2022/12/14 08:42:51;;;;;;;38.53;20.77;;;-5.10;99.90;;;;;;5071685;28;20111;-68
2022/12/14 08:45:17;;;;;;;42.83;21.58;;;-5.10;99.90;;;;;;5072000;28;20048;-69
2022/12/14 08:47:42;;;;;;;34.25;19.23;;;-5.00;99.90;;;;;;5071546;28;20037;-68
2022/12/14 08:50:09;;;;;;;40.15;19.67;;;-5.00;99.90;;;;;;5055176;28;20033;-68
2022/12/14 08:52:34;;;;;;;38.83;19.67;;;-5.00;99.90;;;;;;5071600;28;20044;-69
2022/12/14 08:55:00;;;;;;;34.08;18.50;;;-4.90;99.90;;;;;;5071760;28;20047;-69
2022/12/14 08:57:25;;;;;;;37.20;18.70;;;-4.90;99.90;;;;;;5071475;28;20162;-69
2022/12/14 08:59:51;;;;;;;33.78;18.45;;;-4.90;99.90;;;;;;5071505;28;20048;-69
2022/12/14 09:02:17;;;;;;;35.80;18.55;;;-4.90;99.90;;;;;;5071709;28;20044;-69
2022/12/14 09:04:42;;;;;;;37.42;20.40;;;-4.80;99.90;;;;;;5071465;28;20044;-69
2022/12/14 09:07:08;;;;;;;36.35;19.92;;;-4.80;99.90;;;;;;5071632;28;20098;-69
2022/12/14 09:09:36;;;;;;;38.38;21.10;;;-4.70;99.90;;;;;;5071486;28;20033;-69
2022/12/14 09:12:05;;;;;;;31.98;19.00;;;-4.70;99.90;;;;;;5071680;28;20045;-69
2022/12/14 09:14:32;;;;;;;34.90;18.85;;;-4.60;99.90;;;;;;5071593;28;20493;-69
2022/12/14 09:16:58;;;;;;;35.00;18.73;;;-4.60;99.90;;;;;;5071544;28;20524;-69
2022/12/14 09:19:24;;;;;;;35.20;19.17;;;-4.40;99.90;;;;;;5071380;28;20048;-69
2022/12/14 09:21:49;;;;;;;35.05;19.33;;;-4.40;99.90;;;;;;5071330;28;20044;-69
2022/12/14 09:24:15;;;;;;;34.72;18.42;;;-4.30;99.90;;;;;;5071200;28;20037;-69
2022/12/14 09:26:41;;;;;;;35.70;18.38;;;-4.20;99.90;;;;;;5073730;28;20040;-69
2022/12/14 09:29:06;;;;;;;34.55;18.98;;;-4.20;99.90;;;;;;5074983;28;20032;-69
2022/12/14 09:31:32;;;;;;;34.92;18.60;;;-4.10;99.90;;;;;;5074964;28;20086;-68
2022/12/14 09:33:58;;;;;;;32.72;18.63;;;-4.10;99.90;;;;;;5074884;28;20159;-68
2022/12/14 09:36:26;;;;;;;34.80;19.85;;;-4.00;99.90;;;;;;5074750;28;20093;-69
2022/12/14 09:38:56;;;;;;;33.50;18.10;;;-4.00;99.90;;;;;;5074771;28;20431;-69
2022/12/14 09:41:29;;;;;;;33.78;19.13;;;-3.90;99.90;;;;;;5074699;28;20072;-69
2022/12/14 09:44:22;;;;;;;33.47;18.15;;;-3.80;99.90;;;;;;5075006;28;20048;-68
2022/12/14 09:46:50;;;;;;;35.33;18.25;;;-3.70;99.90;;;;;;5074432;28;20128;-68
2022/12/14 09:49:30;;;;;;;34.55;17.88;;;-3.70;99.90;;;;;;5074556;28;20094;-68
2022/12/14 09:52:00;;;;;;;30.58;17.67;;;-3.60;99.90;;;;;;5074669;28;20037;-68
2022/12/14 09:54:28;;;;;;;33.58;18.38;;;-3.50;99.90;;;;;;5074578;28;20039;-69
2022/12/14 09:56:58;;;;;;;32.38;17.77;;;-3.50;99.90;;;;;;5075665;28;20453;-69
2022/12/14 09:59:27;;;;;;;32.17;17.88;;;-3.40;99.90;;;;;;5074534;28;20044;-69
2022/12/14 10:02:12;;;;;;;34.88;18.27;;;-3.40;99.90;;;;;;5074360;28;20097;-69
2022/12/14 10:05:05;;;;;;;35.47;19.15;;;-3.30;99.90;;;;;;5073591;28;20082;-69
2022/12/14 10:08:14;;;;;;;31.27;17.65;;;-3.20;99.90;;;;;;5074205;28;20040;-69
2022/12/14 10:10:49;;;;;;;31.27;17.88;;;-3.10;99.90;;;;;;5054022;28;20041;-69
2022/12/14 10:13:26;;;;;;;31.98;17.50;;;-3.10;99.90;;;;;;5074189;28;20089;-69
2022/12/14 10:16:26;;;;;;;30.50;16.85;;;-3.00;99.90;;;;;;5074022;28;20052;-69
2022/12/14 10:19:13;;;;;;;31.88;16.40;;;-2.90;99.90;;;;;;5074319;28;20044;-69
2022/12/14 10:21:57;;;;;;;29.08;15.82;;;-2.80;99.90;;;;;;5074004;28;20048;-69
2022/12/14 10:24:28;;;;;;;31.58;17.55;;;-2.70;99.90;;;;;;5074182;28;20509;-69
2022/12/14 10:26:54;;;;;;;31.33;17.35;;;-2.70;99.90;;;;;;5073959;28;20041;-69
2022/12/14 10:29:31;;;;;;;34.33;17.42;;;-2.60;99.90;;;;;;5074151;28;20090;-69
2022/12/14 10:32:14;;;;;;;30.95;16.98;;;-2.50;99.90;;;;;;5073961;28;20051;-69
2022/12/14 10:34:42;;;;;;;29.33;16.98;;;-2.40;99.90;;;;;;5074039;28;20040;-71
2022/12/14 10:37:33;;;;;;;31.92;16.65;;;-2.30;99.90;;;;;;5072598;28;20079;-69
2022/12/14 10:40:08;;;;;;;32.85;17.17;;;-2.20;99.90;;;;;;5073687;28;20037;-69
2022/12/14 10:42:47;;;;;;;35.70;18.15;;;-2.10;99.90;;;;;;5073949;28;20076;-69
2022/12/14 10:45:58;;;;;;;29.52;17.77;;;-2.10;99.90;;;;;;5073447;28;20499;-69
2022/12/14 10:48:38;;;;;;;27.88;15.20;;;-2.00;99.90;;;;;;5073435;28;20036;-68
2022/12/14 10:51:14;;;;;;;29.25;15.98;;;-1.90;99.90;;;;;;5073465;28;20036;-68
2022/12/14 10:53:47;;;;;;;31.83;16.38;;;-1.80;99.90;;;;;;5073649;28;20056;-69
2022/12/14 10:56:32;;;;;;;26.25;15.05;;;-1.70;99.90;;;;;;5056701;28;20055;-69
2022/12/14 10:59:16;;;;;;;25.92;14.27;;;-1.60;99.90;;;;;;5073304;28;20500;-68
2022/12/14 11:01:43;;;;;;;25.42;15.10;;;-1.60;99.90;;;;;;5073506;28;20055;-68
2022/12/14 11:04:28;;;;;;;28.33;16.42;;;-1.50;99.90;;;;;;5073082;28;20595;-69
2022/12/14 11:06:55;;;;;;;25.67;14.32;;;-1.40;99.90;;;;;;5073048;28;20494;-69
2022/12/14 11:09:22;;;;;;;25.17;14.48;;;-1.40;99.90;;;;;;5073215;28;20043;-70
2022/12/14 11:11:53;;;;;;;22.17;13.13;;;-1.30;99.90;;;;;;5056610;28;20051;-69
2022/12/14 11:14:22;;;;;;;25.20;14.35;;;-1.20;99.90;;;;;;5072903;28;20051;-68
2022/12/14 11:16:47;;;;;;;27.83;13.93;;;-1.00;99.90;;;;;;5072887;28;20060;-72
2022/12/14 11:19:19;;;;;;;22.52;13.18;;;-0.50;99.90;;;;;;5073163;28;20044;-69
2022/12/14 11:21:46;;;;;;;20.52;12.90;;;0.30;99.90;;;;;;5072883;28;20133;-69
2022/12/14 11:24:26;;;;;;;24.23;12.98;;;1.40;99.90;;;;;;5072692;28;20044;-69
2022/12/14 11:27:02;;;;;;;25.13;12.85;;;2.80;99.90;;;;;;5072977;28;20048;-69
2022/12/14 11:29:35;;;;;;;25.17;13.60;;;3.70;99.90;;;;;;5072899;28;20494;-69
2022/12/14 11:32:02;;;;;;;;;;;4.00;99.70;;;;;;5073304;28;20396;-69
2022/12/14 11:34:38;;;;;;;26.05;13.73;;;4.50;97.80;;;;;;5072524;28;20278;-69
2022/12/14 11:37:42;;;;;;;26.83;15.43;;;5.10;98.50;;;;;;5056158;28;20041;-69
2022/12/14 11:40:18;;;;;;;22.48;13.75;;;4.80;95.30;;;;;;5015445;28;20084;-69
2022/12/14 11:42:49;;;;;;;25.10;13.57;;;4.70;96.00;;;;;;5015647;28;20045;-69
2022/12/14 11:45:34;;;;;;;23.15;13.65;;;4.60;95.80;;;;;;5046592;28;20052;-70
2022/12/14 11:48:13;;;;;;;23.45;13.98;;;4.60;94.10;;;;;;5072083;28;20080;-69
2022/12/14 11:50:38;;;;;;;25.23;14.05;;;4.80;94.80;;;;;;5072279;28;20110;-69
2022/12/14 11:53:08;;;;;;;22.90;13.15;;;4.60;94.90;;;;;;5055562;28;20076;-69
2022/12/14 11:55:38;;;;;;;23.02;11.70;;;4.40;94.50;;;;;;5072293;28;20040;-69
2022/12/14 11:58:10;;;;;;;17.13;11.23;;;4.20;94.10;;;;;;5072276;28;20496;-69
2022/12/14 12:00:47;;;;;;;17.95;11.70;;;4.30;93.70;;;;;;5072456;28;20040;-69
2022/12/14 12:03:24;;;;;;;18.23;11.73;;;4.40;91.90;;;;;;5072525;28;20036;-70
2022/12/14 12:05:52;;;;;;;20.52;13.63;;;4.60;91.70;;;;;;5072086;28;20515;-69
2022/12/14 12:08:23;;;;;;;21.33;13.05;;;4.70;91.90;;;;;;5072144;28;20040;-69
2022/12/14 12:10:53;;;;;;;20.52;11.98;;;5.10;91.30;;;;;;5072103;28;20040;-69
2022/12/14 12:13:30;;;;;;;18.85;11.18;;;5.30;90.40;;;;;;5072106;28;20036;-69
2022/12/14 12:16:04;;;;;;;18.98;11.13;;;5.40;89.20;;;;;;5072200;28;20121;-69
2022/12/14 12:18:33;;;;;;;20.52;12.52;;;5.40;88.50;;;;;;5071979;28;20512;-69
2022/12/14 12:21:11;;;;;;;18.15;11.30;;;5.10;89.50;;;;;;5071923;28;20055;-69
2022/12/14 12:23:48;;;;;;;15.68;10.23;;;5.00;88.10;;;;;;5071918;28;20489;-69
2022/12/14 12:26:25;;;;;;;17.17;10.68;;;5.20;86.80;;;;;;5071801;28;20121;-69
2022/12/14 12:29:08;;;;;;;20.55;11.95;;;5.50;87.00;;;;;;5071826;28;20386;-68
2022/12/14 12:31:40;;;;;;;21.65;12.55;;;5.50;86.50;;;;;;5071859;28;20045;-70
2022/12/14 12:34:18;;;;;;;19.73;12.80;;;5.70;87.30;;;;;;5071793;28;20051;-70
2022/12/14 12:36:45;;;;;;;18.30;12.05;;;6.70;85.10;;;;;;5071865;28;20094;-70
2022/12/14 12:39:14;;;;;;;19.95;12.57;;;8.20;83.10;;;;;;5071962;28;20056;-71
2022/12/14 12:41:47;;;;;;;18.05;11.85;;;9.20;78.50;;;;;;5071702;28;20075;-71
2022/12/14 12:44:31;;;;;;;16.42;11.13;;;9.30;74.30;;;;;;5071890;28;20090;-71
2022/12/14 12:47:12;;;;;;;;;;;8.70;73.50;;;;;;5071934;28;20055;-71
2022/12/14 12:49:38;;;;;;;16.92;10.55;;;8.00;70.20;;;;;;5071694;28;19927;-71
2022/12/14 12:52:36;;;;;;;17.30;12.13;;;7.90;76.90;;;;;;5072805;28;20493;-71
2022/12/14 12:55:12;;;;;;;16.55;11.77;;;7.60;75.80;;;;;;5033974;28;20126;-71
2022/12/14 12:57:43;;;;;;;22.65;12.75;;;7.20;75.80;;;;;;5034220;28;20505;-71
2022/12/14 13:00:19;;;;;;;17.27;11.82;;;6.90;75.70;;;;;;5034770;28;20075;-71
2022/12/14 13:03:12;;;;;;;17.45;12.43;;;6.60;75.10;;;;;;5038093;28;20463;-71
2022/12/14 13:05:40;;;;;;;18.67;12.60;;;6.50;74.70;;;;;;5037880;28;20148;-71